Time;durP1;ratioP1;P1;durP2;ratioP2;P2;SDS_P1;SDS_P2;PMS_P1;PMS_P2;Temp;Humidity;BMP_temperature;BMP_pressure;BME280_temperature;BME280_humidity;BME280_pressure;Samples;Min_cycle;Max_cycle;Signal;HPM_P1;HPM_P2
2021/01/09 00:01:01;;;;;;;1.70;0.20;;;2.30;99.90;;;;;;5110546;28;20184;-60
2021/01/09 00:03:27;;;;;;;1.80;0.50;;;2.30;99.90;;;;;;5108417;27;20578;-60
2021/01/09 00:05:53;;;;;;;1.80;0.40;;;2.30;99.90;;;;;;5110455;28;20219;-60
2021/01/09 00:08:19;;;;;;;1.70;0.20;;;2.30;99.90;;;;;;5105088;28;20171;-60
2021/01/09 00:10:47;;;;;;;1.90;0.52;;;2.40;99.90;;;;;;5110101;28;20266;-60
2021/01/09 00:13:13;;;;;;;1.80;0.20;;;2.50;99.90;;;;;;5112630;27;20185;-60
2021/01/09 00:15:38;;;;;;;3.60;2.40;;;2.50;99.90;;;;;;5110038;28;20573;-60
2021/01/09 00:18:04;;;;;;;1.70;0.20;;;2.50;99.90;;;;;;5103792;28;20188;-59
2021/01/09 00:20:29;;;;;;;1.70;0.30;;;2.40;99.90;;;;;;5110803;28;20179;-59
2021/01/09 00:22:55;;;;;;;7.27;3.93;;;2.50;99.90;;;;;;5108331;28;20187;-59
2021/01/09 00:25:20;;;;;;;1.77;0.20;;;2.50;99.90;;;;;;5103289;27;20801;-60
2021/01/09 00:27:46;;;;;;;3.13;1.50;;;2.50;99.90;;;;;;5110143;28;20190;-60
2021/01/09 00:30:12;;;;;;;2.43;0.97;;;2.40;99.90;;;;;;5108003;28;20706;-60
2021/01/09 00:32:38;;;;;;;1.70;0.20;;;2.50;99.90;;;;;;5105940;28;20265;-60
2021/01/09 00:35:07;;;;;;;5.60;3.40;;;2.40;99.90;;;;;;5092651;28;20191;-60
2021/01/09 00:37:33;;;;;;;10.25;6.88;;;2.30;99.90;;;;;;5106596;28;20211;-60
2021/01/09 00:39:58;;;;;;;2.40;1.40;;;2.30;99.90;;;;;;5107316;28;20221;-60
2021/01/09 00:42:24;;;;;;;4.80;2.77;;;2.30;99.90;;;;;;5106007;28;20425;-60
2021/01/09 00:44:49;;;;;;;2.87;1.97;;;2.30;99.90;;;;;;5109717;28;20191;-65
2021/01/09 00:47:15;;;;;;;1.80;0.43;;;2.30;99.90;;;;;;5109042;28;20211;-60
2021/01/09 00:49:40;;;;;;;1.80;0.40;;;2.30;99.90;;;;;;5108173;28;20564;-60
2021/01/09 00:52:06;;;;;;;9.20;7.13;;;2.40;99.90;;;;;;5104761;28;20205;-60
2021/01/09 00:54:32;;;;;;;8.50;5.83;;;2.40;99.90;;;;;;5114220;28;20195;-60
2021/01/09 00:56:58;;;;;;;3.88;1.98;;;2.30;99.90;;;;;;5110826;28;20234;-60
2021/01/09 00:59:24;;;;;;;4.17;2.33;;;2.30;99.90;;;;;;5104963;28;20793;-60
2021/01/09 01:01:51;;;;;;;4.93;2.72;;;2.30;99.90;;;;;;5108889;28;20465;-59
2021/01/09 01:04:17;;;;;;;1.73;0.20;;;2.30;99.90;;;;;;5107651;28;20171;-60
2021/01/09 01:06:43;;;;;;;4.55;1.25;;;2.30;99.90;;;;;;5103500;28;20562;-60
2021/01/09 01:09:10;;;;;;;3.80;3.10;;;2.30;99.90;;;;;;5109993;28;20190;-59
2021/01/09 01:11:36;;;;;;;2.65;2.17;;;2.30;99.90;;;;;;5107962;28;20260;-60
2021/01/09 01:14:02;;;;;;;7.82;4.60;;;2.30;99.90;;;;;;5108474;28;20549;-60
2021/01/09 01:16:28;;;;;;;4.10;2.10;;;2.30;99.90;;;;;;5113324;28;20215;-60
2021/01/09 01:18:53;;;;;;;4.80;4.33;;;2.30;99.90;;;;;;5106758;28;20432;-60
2021/01/09 01:21:19;;;;;;;4.03;1.67;;;2.30;99.90;;;;;;5109143;28;20175;-59
2021/01/09 01:23:45;;;;;;;1.80;0.20;;;2.30;99.90;;;;;;5108144;28;20221;-59
2021/01/09 01:26:11;;;;;;;4.95;2.65;;;2.40;99.90;;;;;;5106304;28;20259;-59
2021/01/09 01:28:38;;;;;;;2.80;1.80;;;2.30;99.90;;;;;;5092948;28;20183;-60
2021/01/09 01:31:04;;;;;;;2.10;0.95;;;2.30;99.90;;;;;;5107147;28;20183;-60
2021/01/09 01:33:30;;;;;;;1.73;0.30;;;2.40;99.90;;;;;;5106589;28;20190;-60
2021/01/09 01:35:56;;;;;;;6.03;3.87;;;2.40;99.90;;;;;;5112568;28;20945;-60
2021/01/09 01:38:22;;;;;;;2.33;0.77;;;2.40;99.90;;;;;;5111525;28;20747;-60
2021/01/09 01:40:47;;;;;;;1.77;0.20;;;2.40;99.90;;;;;;5107365;28;20179;-59
2021/01/09 01:43:14;;;;;;;1.70;0.20;;;2.40;99.90;;;;;;5115327;28;20175;-60
2021/01/09 01:45:40;;;;;;;2.47;0.90;;;2.50;99.90;;;;;;5107750;28;20214;-60
2021/01/09 01:48:07;;;;;;;2.08;0.75;;;2.40;99.90;;;;;;5111288;28;20188;-60
2021/01/09 01:50:33;;;;;;;1.80;0.45;;;2.40;99.90;;;;;;5112307;28;20233;-60
2021/01/09 01:52:59;;;;;;;1.70;0.20;;;2.40;99.90;;;;;;5111192;27;20178;-60
2021/01/09 01:55:25;;;;;;;2.75;0.93;;;2.40;99.90;;;;;;5111496;28;20249;-61
2021/01/09 01:57:50;;;;;;;3.23;1.37;;;2.40;99.90;;;;;;5113994;28;20561;-60
2021/01/09 02:00:17;;;;;;;2.67;1.47;;;2.40;99.90;;;;;;5111822;28;20638;-60
2021/01/09 02:02:42;;;;;;;1.70;0.20;;;2.40;99.90;;;;;;5112822;28;20288;-60
2021/01/09 02:05:09;;;;;;;1.70;0.20;;;2.50;99.90;;;;;;5127299;27;20882;-60
2021/01/09 02:07:39;;;;;;;2.10;0.85;;;2.60;99.90;;;;;;5113939;27;20194;-60
2021/01/09 02:10:07;;;;;;;1.98;0.95;;;2.60;99.90;;;;;;5116417;28;20190;-60
2021/01/09 02:12:41;;;;;;;1.80;0.45;;;2.60;99.90;;;;;;5123990;28;20210;-60
2021/01/09 02:15:07;;;;;;;1.70;0.20;;;2.60;99.90;;;;;;5124036;28;20179;-60
2021/01/09 02:17:35;;;;;;;1.70;0.20;;;2.60;99.90;;;;;;5128266;28;20215;-60
2021/01/09 02:20:03;;;;;;;1.75;0.20;;;2.60;99.90;;;;;;5121906;28;20730;-61
2021/01/09 02:22:40;;;;;;;2.92;1.55;;;2.60;99.90;;;;;;5128172;28;20239;-60
2021/01/09 02:25:06;;;;;;;3.55;2.05;;;2.70;99.90;;;;;;5128828;28;20151;-61
2021/01/09 02:27:32;;;;;;;1.70;0.20;;;2.60;99.90;;;;;;5128629;28;20301;-60
2021/01/09 02:30:05;;;;;;;3.30;1.60;;;2.50;99.90;;;;;;5124181;28;20784;-65
2021/01/09 02:32:48;;;;;;;8.55;5.03;;;2.50;99.90;;;;;;5097507;28;20171;-60
2021/01/09 02:35:16;;;;;;;2.20;1.00;;;2.50;99.90;;;;;;5114730;28;20507;-62
2021/01/09 02:37:43;;;;;;;5.05;1.75;;;2.40;99.90;;;;;;5111494;27;20212;-60
2021/01/09 02:40:13;;;;;;;1.92;0.50;;;2.40;99.90;;;;;;5112825;28;20207;-59
2021/01/09 02:42:39;;;;;;;2.00;0.98;;;2.40;99.90;;;;;;5111339;28;20172;-59
2021/01/09 02:45:07;;;;;;;1.80;0.40;;;2.40;99.90;;;;;;5110218;27;20190;-60
2021/01/09 02:47:33;;;;;;;1.90;0.38;;;2.40;99.90;;;;;;5110679;28;20644;-60
2021/01/09 02:49:58;;;;;;;1.70;0.20;;;2.40;99.90;;;;;;5109353;28;20299;-59
2021/01/09 02:52:24;;;;;;;1.70;0.20;;;2.40;99.90;;;;;;5109187;28;20317;-60
2021/01/09 02:54:49;;;;;;;1.80;0.20;;;2.50;99.90;;;;;;5113590;27;20191;-60
2021/01/09 02:57:15;;;;;;;1.70;0.20;;;2.60;99.90;;;;;;5109183;28;20218;-60
2021/01/09 02:59:40;;;;;;;1.70;0.20;;;2.60;99.90;;;;;;5107650;28;20191;-59
2021/01/09 03:02:06;;;;;;;1.90;0.67;;;2.60;99.90;;;;;;5112016;28;20183;-59
2021/01/09 03:04:31;;;;;;;1.80;0.20;;;2.60;99.90;;;;;;5104678;28;20573;-59
2021/01/09 03:06:57;;;;;;;1.70;0.20;;;2.50;99.90;;;;;;5106654;28;20231;-60
2021/01/09 03:09:22;;;;;;;1.80;0.30;;;2.50;99.90;;;;;;5112486;28;20186;-60
2021/01/09 03:11:48;;;;;;;3.23;1.90;;;2.50;99.90;;;;;;5110219;27;20219;-60
2021/01/09 03:14:13;;;;;;;2.53;1.03;;;2.50;99.90;;;;;;5112865;27;20179;-59
2021/01/09 03:16:39;;;;;;;1.70;0.20;;;2.50;99.90;;;;;;5110240;28;20214;-59
2021/01/09 03:19:04;;;;;;;1.70;0.20;;;2.60;99.90;;;;;;5109608;28;20601;-59
2021/01/09 03:21:30;;;;;;;1.70;0.20;;;2.70;99.90;;;;;;5111983;28;20205;-59
2021/01/09 03:23:55;;;;;;;1.70;0.20;;;2.70;99.90;;;;;;5105173;28;20171;-59
2021/01/09 03:26:21;;;;;;;2.63;1.40;;;2.80;99.90;;;;;;5107562;28;20720;-59
2021/01/09 03:28:46;;;;;;;2.00;0.60;;;2.70;99.90;;;;;;5113888;28;20190;-59
2021/01/09 03:31:12;;;;;;;2.00;0.70;;;2.70;99.90;;;;;;5109740;27;20183;-60
2021/01/09 03:33:37;;;;;;;1.80;0.50;;;2.60;99.90;;;;;;5108595;28;20285;-60
2021/01/09 03:36:04;;;;;;;1.80;0.20;;;2.60;99.90;;;;;;5110910;28;20290;-60
2021/01/09 03:38:30;;;;;;;1.70;0.20;;;2.70;99.90;;;;;;5105200;28;20195;-59
2021/01/09 03:40:55;;;;;;;1.70;0.20;;;2.80;99.90;;;;;;5111355;28;20255;-60
2021/01/09 03:43:21;;;;;;;1.70;0.20;;;2.80;99.90;;;;;;5112427;28;20249;-60
2021/01/09 03:45:46;;;;;;;1.73;0.20;;;2.70;99.90;;;;;;5108834;28;20302;-60
2021/01/09 03:48:12;;;;;;;3.80;2.57;;;2.70;99.90;;;;;;5106025;28;20184;-60
2021/01/09 03:50:37;;;;;;;1.70;0.20;;;2.70;99.90;;;;;;5093965;28;20258;-59
2021/01/09 03:53:03;;;;;;;3.13;1.33;;;2.70;99.90;;;;;;5110419;28;20240;-59
2021/01/09 03:55:28;;;;;;;3.67;2.87;;;2.60;99.90;;;;;;5111935;28;20199;-60
2021/01/09 03:57:54;;;;;;;1.70;0.20;;;2.60;99.90;;;;;;5110117;28;20215;-59
2021/01/09 04:00:19;;;;;;;1.80;0.20;;;2.50;99.90;;;;;;5104448;27;20274;-59
2021/01/09 04:02:45;;;;;;;1.70;0.20;;;2.50;99.90;;;;;;5112113;28;20266;-59
2021/01/09 04:05:11;;;;;;;2.30;0.60;;;2.50;99.90;;;;;;5108160;27;20270;-59
2021/01/09 04:07:36;;;;;;;3.80;1.07;;;2.50;99.90;;;;;;5106870;28;20198;-59
2021/01/09 04:10:04;;;;;;;1.70;0.20;;;2.60;99.90;;;;;;5110839;28;20228;-59
2021/01/09 04:12:29;;;;;;;1.73;0.20;;;2.60;99.90;;;;;;5103319;28;20182;-59
2021/01/09 04:14:55;;;;;;;1.70;0.20;;;2.60;99.90;;;;;;5107509;28;20666;-59
2021/01/09 04:17:20;;;;;;;2.50;1.10;;;2.70;99.90;;;;;;5110312;28;20670;-59
2021/01/09 04:19:46;;;;;;;1.70;0.20;;;2.70;99.90;;;;;;5106646;28;20646;-60
2021/01/09 04:22:11;;;;;;;1.70;0.20;;;2.70;99.90;;;;;;5110040;28;20541;-60
2021/01/09 04:24:37;;;;;;;1.77;0.20;;;2.80;99.90;;;;;;5107338;28;20194;-60
2021/01/09 04:27:03;;;;;;;1.70;0.20;;;2.70;99.90;;;;;;5107845;28;20226;-59
2021/01/09 04:29:29;;;;;;;1.80;0.20;;;2.70;99.90;;;;;;5110151;28;20206;-60
2021/01/09 04:31:55;;;;;;;1.70;0.20;;;2.70;99.90;;;;;;5112222;28;20277;-60
2021/01/09 04:34:22;;;;;;;1.70;0.30;;;2.80;99.90;;;;;;5104432;28;20175;-60
2021/01/09 04:36:48;;;;;;;1.70;0.20;;;2.70;99.90;;;;;;5109858;28;20207;-60
2021/01/09 04:39:14;;;;;;;2.30;1.03;;;2.70;99.90;;;;;;5109612;27;20328;-59
2021/01/09 04:41:40;;;;;;;1.70;0.20;;;2.70;99.90;;;;;;5102098;28;20181;-60
2021/01/09 04:44:08;;;;;;;1.70;0.20;;;2.70;99.90;;;;;;5112219;28;20180;-60
2021/01/09 04:46:52;;;;;;;1.73;0.20;;;2.70;99.90;;;;;;5091202;28;20250;-60
2021/01/09 04:49:25;;;;;;;1.70;0.20;;;2.80;99.90;;;;;;5106744;28;20194;-60
2021/01/09 04:51:52;;;;;;;1.70;0.20;;;2.80;99.90;;;;;;5111915;28;20183;-59
2021/01/09 04:54:22;;;;;;;1.70;0.20;;;2.80;99.90;;;;;;5106533;28;20187;-59
2021/01/09 04:56:53;;;;;;;1.77;0.30;;;2.80;99.90;;;;;;5103020;28;20288;-60
2021/01/09 04:59:19;;;;;;;1.70;0.20;;;2.80;99.90;;;;;;5110089;28;20218;-60
2021/01/09 05:01:47;;;;;;;1.70;0.20;;;2.70;99.90;;;;;;5109004;28;20268;-59
2021/01/09 05:04:13;;;;;;;6.78;1.75;;;2.80;99.90;;;;;;5107094;28;20210;-59
2021/01/09 05:06:40;;;;;;;2.22;1.55;;;2.70;99.90;;;;;;5111754;28;20211;-59
2021/01/09 05:09:06;;;;;;;1.80;0.20;;;2.80;99.90;;;;;;5110598;28;20662;-59
2021/01/09 05:11:33;;;;;;;1.73;0.20;;;2.70;99.90;;;;;;5104939;28;20199;-59
2021/01/09 05:13:59;;;;;;;1.70;0.20;;;2.70;99.90;;;;;;5113845;28;20208;-59
2021/01/09 05:16:25;;;;;;;1.70;0.20;;;2.70;99.90;;;;;;5110366;28;20659;-59
2021/01/09 05:18:51;;;;;;;1.77;0.20;;;2.80;99.90;;;;;;5110823;28;20546;-59
2021/01/09 05:21:18;;;;;;;1.77;0.20;;;2.70;99.90;;;;;;5116896;28;20248;-59
2021/01/09 05:23:59;;;;;;;1.70;0.20;;;2.80;99.90;;;;;;5111610;27;20215;-59
2021/01/09 05:26:25;;;;;;;1.70;0.20;;;2.80;99.90;;;;;;5113661;28;20207;-58
2021/01/09 05:28:53;;;;;;;1.70;0.20;;;2.80;99.90;;;;;;5112286;28;20211;-58
2021/01/09 05:31:20;;;;;;;1.70;0.20;;;2.70;99.90;;;;;;5109418;28;20213;-58
2021/01/09 05:33:47;;;;;;;1.80;0.20;;;2.80;99.90;;;;;;5112842;28;20191;-58
2021/01/09 05:36:13;;;;;;;1.92;0.70;;;2.70;99.90;;;;;;5115238;28;20235;-58
2021/01/09 05:38:41;;;;;;;1.70;0.20;;;2.80;99.90;;;;;;5113768;27;20203;-57
2021/01/09 05:41:09;;;;;;;1.70;0.20;;;2.70;99.90;;;;;;5112427;27;20846;-58
2021/01/09 05:43:35;;;;;;;1.80;0.20;;;2.70;99.90;;;;;;5111854;28;20179;-58
2021/01/09 05:46:02;;;;;;;1.70;0.20;;;2.80;99.90;;;;;;5108467;28;20238;-58
2021/01/09 05:48:28;;;;;;;1.70;0.20;;;2.90;99.90;;;;;;5097590;28;20611;-58
2021/01/09 05:50:55;;;;;;;1.70;0.20;;;2.80;99.90;;;;;;5114062;28;20191;-58
2021/01/09 05:53:37;;;;;;;1.75;0.20;;;2.90;99.90;;;;;;5113335;27;20282;-58
2021/01/09 05:56:04;;;;;;;1.75;0.20;;;2.80;99.90;;;;;;5114595;27;20210;-58
2021/01/09 05:58:31;;;;;;;1.73;0.20;;;2.90;99.90;;;;;;5110915;28;20258;-58
2021/01/09 06:00:58;;;;;;;1.70;0.20;;;2.90;99.90;;;;;;5106630;28;20260;-59
2021/01/09 06:03:36;;;;;;;1.70;0.20;;;2.90;99.90;;;;;;5114377;28;20574;-58
2021/01/09 06:06:12;;;;;;;1.73;0.20;;;3.00;99.90;;;;;;5109728;28;20217;-58
2021/01/09 06:08:44;;;;;;;1.70;0.20;;;3.00;99.90;;;;;;5109926;28;20233;-59
2021/01/09 06:11:16;;;;;;;1.73;0.20;;;3.00;99.90;;;;;;5110826;28;20275;-59
2021/01/09 06:13:44;;;;;;;1.70;0.20;;;3.00;99.90;;;;;;5111343;28;20253;-60
2021/01/09 06:16:11;;;;;;;1.70;0.20;;;3.00;99.90;;;;;;5093910;28;20301;-59
2021/01/09 06:18:38;;;;;;;1.73;0.20;;;3.00;99.90;;;;;;5113861;28;20610;-59
2021/01/09 06:21:04;;;;;;;1.75;0.20;;;2.80;99.90;;;;;;5130279;28;20723;-58
2021/01/09 06:23:30;;;;;;;1.70;0.20;;;2.80;99.90;;;;;;5100420;28;20205;-59
2021/01/09 06:25:59;;;;;;;1.80;0.20;;;2.80;99.90;;;;;;5109684;28;20804;-59
2021/01/09 06:28:31;;;;;;;1.70;0.20;;;2.80;99.90;;;;;;5115447;28;20211;-58
2021/01/09 06:30:58;;;;;;;2.10;1.20;;;2.80;99.90;;;;;;5111291;28;20191;-59
2021/01/09 06:33:25;;;;;;;1.70;0.20;;;2.80;99.90;;;;;;5114988;28;20271;-59
2021/01/09 06:35:54;;;;;;;1.70;0.20;;;2.90;99.90;;;;;;5107644;28;20199;-59
2021/01/09 06:38:21;;;;;;;1.70;0.20;;;2.90;99.90;;;;;;5110803;28;20183;-59
2021/01/09 06:40:46;;;;;;;1.70;0.20;;;2.90;99.90;;;;;;5113289;28;20199;-59
2021/01/09 06:43:14;;;;;;;1.70;0.20;;;2.90;99.90;;;;;;5110688;28;20213;-59
2021/01/09 06:45:42;;;;;;;1.70;0.20;;;2.90;99.90;;;;;;5111058;27;20203;-59
2021/01/09 06:48:10;;;;;;;1.70;0.20;;;2.90;99.90;;;;;;5112791;28;20183;-59
2021/01/09 06:50:37;;;;;;;1.70;0.20;;;2.90;99.90;;;;;;5109429;28;20179;-59
2021/01/09 06:53:04;;;;;;;1.70;0.20;;;2.90;99.90;;;;;;5111511;27;20198;-59
2021/01/09 06:55:53;;;;;;;1.70;0.20;;;3.00;99.90;;;;;;5112989;28;20303;-59
2021/01/09 06:58:24;;;;;;;1.70;0.20;;;3.00;99.90;;;;;;5108884;28;20183;-59
2021/01/09 07:00:49;;;;;;;1.70;0.20;;;3.10;99.90;;;;;;5104241;28;20187;-59
2021/01/09 07:03:17;;;;;;;1.80;0.40;;;3.10;99.90;;;;;;5113311;28;20236;-59
2021/01/09 07:05:43;;;;;;;2.30;1.38;;;3.10;99.90;;;;;;5107735;28;20215;-59
2021/01/09 07:08:19;;;;;;;1.70;0.20;;;3.10;99.90;;;;;;5109819;28;20176;-58
2021/01/09 07:10:57;;;;;;;1.70;0.20;;;3.00;99.90;;;;;;5112467;28;20176;-59
2021/01/09 07:13:23;;;;;;;1.70;0.20;;;2.90;99.90;;;;;;5111798;28;20195;-59
2021/01/09 07:16:09;;;;;;;1.70;0.20;;;2.90;99.90;;;;;;5106205;28;20203;-59
2021/01/09 07:18:48;;;;;;;1.70;0.20;;;2.90;99.90;;;;;;5108415;28;20198;-60
2021/01/09 07:21:19;;;;;;;1.73;0.20;;;3.00;99.90;;;;;;5107686;28;20252;-59
2021/01/09 07:23:56;;;;;;;1.70;0.20;;;3.00;99.90;;;;;;5102288;28;20668;-58
2021/01/09 07:26:24;;;;;;;1.80;0.40;;;3.00;99.90;;;;;;5111600;28;20199;-59
2021/01/09 07:28:52;;;;;;;1.73;0.20;;;3.00;99.90;;;;;;5111880;28;20179;-59
2021/01/09 07:31:23;;;;;;;1.70;0.20;;;2.90;99.90;;;;;;5107084;28;20194;-59
2021/01/09 07:33:55;;;;;;;1.70;0.20;;;2.90;99.90;;;;;;5111912;28;20211;-59
2021/01/09 07:36:26;;;;;;;1.70;0.20;;;2.90;99.90;;;;;;5113191;28;20210;-59
2021/01/09 07:38:59;;;;;;;1.70;0.20;;;2.90;99.90;;;;;;5102415;28;20271;-59
2021/01/09 07:41:34;;;;;;;1.73;0.20;;;2.90;99.90;;;;;;5103274;28;20232;-59
2021/01/09 07:44:19;;;;;;;1.70;0.20;;;3.00;99.90;;;;;;5111831;27;20175;-59
2021/01/09 07:46:58;;;;;;;1.70;0.20;;;3.00;99.90;;;;;;5106410;27;20203;-59
2021/01/09 07:49:31;;;;;;;1.70;0.20;;;3.00;99.90;;;;;;5103875;27;20666;-57
2021/01/09 07:52:07;;;;;;;1.75;0.30;;;3.00;99.90;;;;;;5111612;28;20187;-61
2021/01/09 07:54:37;;;;;;;1.73;0.20;;;2.90;99.90;;;;;;5109660;27;20183;-58
2021/01/09 07:57:18;;;;;;;1.70;0.20;;;2.90;99.90;;;;;;5107510;28;20204;-58
2021/01/09 08:00:04;;;;;;;1.70;0.20;;;3.00;99.90;;;;;;5106715;28;20180;-58
2021/01/09 08:02:34;;;;;;;1.70;0.20;;;3.00;99.90;;;;;;5109305;28;20187;-57
2021/01/09 08:05:12;;;;;;;1.70;0.20;;;3.00;99.90;;;;;;5091848;28;20183;-58
2021/01/09 08:07:43;;;;;;;1.70;0.20;;;3.00;99.90;;;;;;5111507;28;20518;-58
2021/01/09 08:10:27;;;;;;;1.70;0.20;;;3.00;99.90;;;;;;5106560;28;20187;-58
2021/01/09 08:12:55;;;;;;;1.70;0.20;;;2.90;99.90;;;;;;5102436;28;20203;-58
2021/01/09 08:15:20;;;;;;;1.70;0.20;;;2.90;99.90;;;;;;5110613;28;20207;-58
2021/01/09 08:17:46;;;;;;;1.70;0.20;;;2.80;99.90;;;;;;5106622;28;20316;-58
2021/01/09 08:20:13;;;;;;;1.70;0.20;;;2.80;99.90;;;;;;5106757;28;20178;-58
2021/01/09 08:22:51;;;;;;;1.75;0.20;;;2.70;99.90;;;;;;5110427;27;20180;-58
2021/01/09 08:25:18;;;;;;;1.73;0.20;;;2.70;99.90;;;;;;5110403;27;20198;-58
2021/01/09 08:27:44;;;;;;;1.70;0.20;;;2.70;99.90;;;;;;5102614;27;20279;-58
2021/01/09 08:30:15;;;;;;;1.75;0.20;;;2.70;99.90;;;;;;5112324;27;20284;-58
2021/01/09 08:32:41;;;;;;;1.70;0.20;;;2.60;99.90;;;;;;5110084;28;20266;-58
2021/01/09 08:35:08;;;;;;;1.70;0.20;;;2.60;99.90;;;;;;5107227;28;20233;-58
2021/01/09 08:37:34;;;;;;;2.05;0.88;;;2.60;99.90;;;;;;5117176;27;20738;-58
2021/01/09 08:40:11;;;;;;;1.70;0.20;;;2.50;99.90;;;;;;5111277;27;20195;-57
2021/01/09 08:42:37;;;;;;;1.73;0.20;;;2.40;99.90;;;;;;5101655;28;20947;-58
2021/01/09 08:45:04;;;;;;;1.70;0.20;;;2.50;99.90;;;;;;5109654;28;20255;-58
2021/01/09 08:47:30;;;;;;;1.70;0.20;;;2.40;99.90;;;;;;5103882;28;20199;-57
2021/01/09 08:49:59;;;;;;;1.70;0.20;;;2.40;99.90;;;;;;5106901;28;21573;-58
2021/01/09 08:52:27;;;;;;;5.30;2.25;;;2.40;99.90;;;;;;5113306;28;20519;-58
2021/01/09 08:54:54;;;;;;;1.80;0.20;;;2.40;99.90;;;;;;5108682;28;20220;-57
2021/01/09 08:57:20;;;;;;;1.77;0.20;;;2.30;99.90;;;;;;5105729;28;20215;-58
2021/01/09 08:59:47;;;;;;;1.70;0.20;;;2.30;99.90;;;;;;5104360;28;20195;-57
2021/01/09 09:02:20;;;;;;;1.73;0.20;;;2.40;99.90;;;;;;5106520;28;20179;-57
2021/01/09 09:04:48;;;;;;;1.73;0.20;;;2.40;99.90;;;;;;5107634;28;20522;-57
2021/01/09 09:07:19;;;;;;;1.80;0.30;;;2.40;99.90;;;;;;5113338;28;20341;-58
2021/01/09 09:09:47;;;;;;;2.33;0.70;;;2.40;99.90;;;;;;5105222;28;20224;-58
2021/01/09 09:12:21;;;;;;;2.10;1.00;;;2.40;99.90;;;;;;5107252;28;20187;-58
2021/01/09 09:14:57;;;;;;;3.00;0.50;;;2.40;99.90;;;;;;5107395;28;20268;-57
2021/01/09 09:17:24;;;;;;;1.80;0.55;;;2.30;99.90;;;;;;5101724;28;20659;-58
2021/01/09 09:19:49;;;;;;;1.80;0.20;;;2.30;99.90;;;;;;5106425;28;20669;-57
2021/01/09 09:22:15;;;;;;;1.80;0.60;;;2.30;99.90;;;;;;5109982;28;20184;-57
2021/01/09 09:24:44;;;;;;;2.87;1.03;;;2.40;99.90;;;;;;5090789;28;20284;-57
2021/01/09 09:27:23;;;;;;;1.70;0.20;;;2.30;99.90;;;;;;5109580;28;20558;-58
2021/01/09 09:29:49;;;;;;;1.80;0.35;;;2.30;99.90;;;;;;5110142;28;20179;-57
2021/01/09 09:32:26;;;;;;;1.80;0.50;;;2.40;99.90;;;;;;5107635;28;20591;-57
2021/01/09 09:34:53;;;;;;;1.70;0.20;;;2.40;99.90;;;;;;5104881;28;20428;-57
2021/01/09 09:37:18;;;;;;;1.70;0.20;;;2.40;99.90;;;;;;5113828;28;20207;-58
2021/01/09 09:39:44;;;;;;;2.93;1.40;;;2.40;99.90;;;;;;5089531;28;20741;-58
2021/01/09 09:42:09;;;;;;;2.63;0.60;;;2.50;99.90;;;;;;5111429;28;20207;-58
2021/01/09 09:44:43;;;;;;;1.77;0.20;;;2.50;99.90;;;;;;5110667;28;20167;-57
2021/01/09 09:47:10;;;;;;;1.77;0.30;;;2.50;99.90;;;;;;5085116;28;21679;-57
2021/01/09 09:49:38;;;;;;;1.70;0.20;;;2.60;99.90;;;;;;5109136;28;20191;-58
2021/01/09 09:52:17;;;;;;;1.70;0.20;;;2.60;99.90;;;;;;5114812;28;20262;-59
2021/01/09 09:54:43;;;;;;;2.10;0.55;;;2.60;99.90;;;;;;5106370;28;20710;-58
2021/01/09 09:57:24;;;;;;;1.70;0.20;;;2.60;99.90;;;;;;5112271;27;20237;-58
2021/01/09 10:00:05;;;;;;;1.80;0.30;;;2.60;99.90;;;;;;5112465;28;20425;-57
2021/01/09 10:02:31;;;;;;;1.80;0.40;;;2.60;99.90;;;;;;5111473;27;20190;-58
2021/01/09 10:04:56;;;;;;;1.70;0.20;;;2.60;99.90;;;;;;5095778;28;20177;-62
2021/01/09 10:07:23;;;;;;;1.70;0.20;;;2.70;99.90;;;;;;5115670;28;20464;-58
2021/01/09 10:09:49;;;;;;;1.90;0.75;;;2.70;99.90;;;;;;5110194;28;20280;-58
2021/01/09 10:12:15;;;;;;;1.70;0.20;;;2.80;99.90;;;;;;5106173;27;20178;-58
2021/01/09 10:14:41;;;;;;;1.80;0.30;;;2.80;99.90;;;;;;5112895;28;20947;-58
2021/01/09 10:17:14;;;;;;;1.70;0.20;;;2.90;99.90;;;;;;5106642;28;20294;-58
2021/01/09 10:19:40;;;;;;;1.70;0.20;;;3.00;99.90;;;;;;5115121;28;20444;-58
2021/01/09 10:22:05;;;;;;;1.80;0.40;;;3.00;99.90;;;;;;5117910;27;20179;-58
2021/01/09 10:24:31;;;;;;;1.70;0.20;;;3.00;99.90;;;;;;5111305;28;20557;-58
2021/01/09 10:26:56;;;;;;;15.03;2.30;;;3.00;99.90;;;;;;5114328;28;20806;-57
2021/01/09 10:29:23;;;;;;;1.90;0.67;;;3.00;99.90;;;;;;5111308;28;20611;-58
2021/01/09 10:31:49;;;;;;;1.70;0.20;;;3.10;99.90;;;;;;5108210;27;20694;-58
2021/01/09 10:34:14;;;;;;;4.13;2.23;;;3.10;99.90;;;;;;5114524;28;20191;-58
2021/01/09 10:36:40;;;;;;;1.70;0.20;;;3.20;99.90;;;;;;5110550;28;20311;-58
2021/01/09 10:39:07;;;;;;;2.30;1.17;;;3.20;99.90;;;;;;5109115;28;20182;-58
2021/01/09 10:41:34;;;;;;;1.70;0.20;;;3.20;99.90;;;;;;5111199;27;20187;-57
2021/01/09 10:43:59;;;;;;;2.00;0.52;;;3.20;99.90;;;;;;5106391;28;20730;-58
2021/01/09 10:46:28;;;;;;;1.70;0.20;;;3.20;99.90;;;;;;5103733;28;20207;-59
2021/01/09 10:48:54;;;;;;;2.35;1.42;;;3.20;99.90;;;;;;5115159;28;20206;-58
2021/01/09 10:51:21;;;;;;;5.95;2.28;;;3.30;99.90;;;;;;5110785;28;20180;-60
2021/01/09 10:53:48;;;;;;;1.73;0.20;;;3.30;99.90;;;;;;5111182;27;20188;-58
2021/01/09 10:56:14;;;;;;;1.70;0.20;;;3.30;99.90;;;;;;5118745;27;20240;-57
2021/01/09 10:58:40;;;;;;;2.55;0.95;;;3.40;99.90;;;;;;5115360;28;20183;-57
2021/01/09 11:01:07;;;;;;;3.13;1.27;;;3.40;99.90;;;;;;5113536;27;20179;-58
2021/01/09 11:03:33;;;;;;;1.70;0.20;;;3.40;99.90;;;;;;5114235;28;20191;-57
2021/01/09 11:06:00;;;;;;;4.25;2.10;;;3.40;99.90;;;;;;5109427;27;20634;-57
2021/01/09 11:08:26;;;;;;;1.83;0.57;;;3.40;99.90;;;;;;5112218;28;20182;-57
2021/01/09 11:10:53;;;;;;;1.70;0.20;;;3.50;99.90;;;;;;5106103;28;20183;-58
2021/01/09 11:13:18;;;;;;;2.28;1.25;;;3.40;99.90;;;;;;5108499;28;20225;-58
2021/01/09 11:15:48;;;;;;;1.70;0.20;;;3.40;99.90;;;;;;5109514;28;20210;-58
2021/01/09 11:18:15;;;;;;;1.90;0.68;;;3.30;99.90;;;;;;5099373;28;20558;-58
2021/01/09 11:20:45;;;;;;;1.73;0.20;;;3.40;99.90;;;;;;5086274;28;20274;-58
2021/01/09 11:23:11;;;;;;;3.20;1.83;;;3.40;99.90;;;;;;5113099;28;20189;-58
2021/01/09 11:25:41;;;;;;;1.70;0.20;;;3.40;99.90;;;;;;5112146;28;20199;-58
2021/01/09 11:28:06;;;;;;;1.73;0.20;;;3.50;99.90;;;;;;5091513;28;20678;-58
2021/01/09 11:30:32;;;;;;;1.70;0.20;;;3.60;99.90;;;;;;5108782;28;20176;-58
2021/01/09 11:32:57;;;;;;;1.70;0.20;;;3.80;99.90;;;;;;5112719;27;20244;-57
2021/01/09 11:35:23;;;;;;;1.70;0.20;;;3.80;99.90;;;;;;5114683;28;20294;-57
2021/01/09 11:37:48;;;;;;;1.70;0.20;;;3.90;99.90;;;;;;5128758;28;20207;-58
2021/01/09 11:40:14;;;;;;;1.80;0.37;;;3.90;99.90;;;;;;5124732;28;20163;-58
2021/01/09 11:42:42;;;;;;;3.10;1.60;;;3.90;99.90;;;;;;5134722;27;20275;-58
2021/01/09 11:45:08;;;;;;;3.60;1.83;;;3.90;99.90;;;;;;5128726;28;20174;-60
2021/01/09 11:47:36;;;;;;;1.90;0.60;;;3.90;99.90;;;;;;5131826;28;20187;-60
2021/01/09 11:50:01;;;;;;;1.70;0.20;;;3.90;99.90;;;;;;5121847;28;20429;-61
2021/01/09 11:52:26;;;;;;;1.70;0.20;;;3.90;99.90;;;;;;5126608;28;20187;-61
2021/01/09 11:54:52;;;;;;;1.70;0.20;;;3.80;99.90;;;;;;5128607;28;20207;-59
2021/01/09 11:57:18;;;;;;;2.00;0.60;;;3.80;99.90;;;;;;5123260;28;20199;-58
2021/01/09 11:59:44;;;;;;;1.70;0.20;;;3.80;99.90;;;;;;5118733;28;20663;-57
2021/01/09 12:02:09;;;;;;;2.10;0.63;;;3.90;99.90;;;;;;5112286;28;20179;-59
2021/01/09 12:04:35;;;;;;;1.70;0.20;;;3.90;99.90;;;;;;5110577;27;20686;-57
2021/01/09 12:07:00;;;;;;;1.80;0.30;;;3.80;99.90;;;;;;5106386;27;20215;-58
2021/01/09 12:09:26;;;;;;;1.77;0.30;;;3.90;99.90;;;;;;5105985;27;20187;-58
2021/01/09 12:11:55;;;;;;;1.70;0.20;;;3.90;99.90;;;;;;5110762;27;20267;-57
2021/01/09 12:14:21;;;;;;;1.95;0.50;;;3.90;99.90;;;;;;5107768;27;20215;-57
2021/01/09 12:16:46;;;;;;;10.70;2.03;;;3.90;99.90;;;;;;5107106;28;20224;-58
2021/01/09 12:19:12;;;;;;;1.70;0.20;;;3.80;99.90;;;;;;5113929;28;20550;-58
2021/01/09 12:21:37;;;;;;;2.90;0.60;;;3.80;99.90;;;;;;5107020;28;20172;-57
2021/01/09 12:24:03;;;;;;;1.70;0.20;;;3.70;99.90;;;;;;5110371;27;20175;-59
2021/01/09 12:26:29;;;;;;;1.77;0.40;;;3.80;99.90;;;;;;5103059;28;20203;-58
2021/01/09 12:28:55;;;;;;;1.70;0.20;;;3.80;99.90;;;;;;5103325;28;20466;-57
2021/01/09 12:31:33;;;;;;;1.70;0.20;;;3.80;99.90;;;;;;5104670;28;20605;-57
2021/01/09 12:34:01;;;;;;;1.80;0.40;;;3.80;99.90;;;;;;5107832;28;20241;-57
2021/01/09 12:36:26;;;;;;;1.80;0.45;;;3.80;99.90;;;;;;5105991;27;20211;-63
2021/01/09 12:38:52;;;;;;;1.70;0.20;;;3.80;99.90;;;;;;5111831;28;20179;-58
2021/01/09 12:41:17;;;;;;;5.20;3.30;;;3.70;99.90;;;;;;5108919;28;20179;-57
2021/01/09 12:43:43;;;;;;;1.90;0.60;;;3.70;99.90;;;;;;5108725;28;20571;-58
2021/01/09 12:46:08;;;;;;;1.70;0.20;;;3.70;99.90;;;;;;5113869;28;20278;-57
2021/01/09 12:48:34;;;;;;;2.40;1.33;;;3.60;99.90;;;;;;5108749;28;20550;-58
2021/01/09 12:50:59;;;;;;;2.00;0.83;;;3.50;99.90;;;;;;5112748;28;20175;-58
2021/01/09 12:53:25;;;;;;;1.70;0.20;;;3.50;99.90;;;;;;5111596;28;20672;-58
2021/01/09 12:55:50;;;;;;;1.70;0.20;;;3.40;99.90;;;;;;5108865;28;20221;-58
2021/01/09 12:58:16;;;;;;;3.60;1.47;;;3.40;99.90;;;;;;5112249;28;20209;-58
2021/01/09 13:00:41;;;;;;;1.70;0.20;;;3.50;99.90;;;;;;5109365;28;20650;-58